Airfield :
LOGIN :

Register | Disclaimer

   EN    FR    IT 

 










Legend :    VFR   Marginal VFR   IFR   Intensive IFR   Very Intensive IFR
Visi :
Ceiling :
>= 8 km
>= 3000ft
5 to 8 km
1000 to 3000 ft
1500m to 5 km
500 to 1000 ft
800 to 1500m
200 to 500 ft
< 800m
< 200 ft
Symbols :   Thunderstorms  Fog  Heavy snow  Heavy precipitations  Wind > 20 kt
SIGMETs :     Misc.  Thunderstorms  Icing  Turbulence  Mountain Waves  Volcanic Ashes






- Airport Elevation : 645 ft
- IATA code : DLE


LFGJ - Dole Tavaux

CURRENT METAR :
  • 270200Z AUTO 19010KT 9999 SCT039 BKN058 BKN068 06/06 Q1019

EXPIRED METARs :
  • 270130Z AUTO 19008KT 9999 FEW028 OVC066 06/06 Q1019
  • 270100Z AUTO 19008KT 9999 FEW027 OVC064 06/06 Q1019
  • 270030Z AUTO 19006KT 7000 FEW029 OVC064 06/06 Q1019
  • 270000Z AUTO 18007KT 4100 BR FEW024 BKN030 BKN062 04/04 Q1019
  • 262330Z AUTO 18007KT 3800 BR FEW002 05/04 Q1019

Expired Forecast.



MET'MAP, your aeronautical weather chart ! - Copyright ORBIFLY December 2007 - Disclaimer

ORBIFLY MET'MAP TEAM :

Programming & Development : Alexandra Zaïnal
Concept & original design : Baudouin d'Aumeries
Assistance for programming : Marc-Olivier Méhu
Technical & hardware support : Manuel Goepfert

Contact : metmap@orbifly.com




SOURCES & CREDITS :

   NOAA